createdAt,value
2022-08-14T00:02:31.391Z,43.27
2022-08-14T00:07:22.720Z,43.51
2022-08-14T00:12:23.986Z,43.51
2022-08-14T00:17:07.959Z,43.68
2022-08-14T00:22:00.515Z,43.59
2022-08-14T00:26:54.748Z,43.26
2022-08-14T00:31:45.964Z,43.34
2022-08-14T00:36:48.550Z,43.51
2022-08-14T00:41:30.890Z,43.36
2022-08-14T00:46:32.446Z,43.44
2022-08-14T00:51:16.057Z,43.39
2022-08-14T00:56:08.740Z,43.35
2022-08-14T01:01:01.381Z,43.3
2022-08-14T01:05:53.674Z,43.36
2022-08-14T01:10:46.230Z,43.5
2022-08-14T01:15:48.485Z,43.42
2022-08-14T01:20:31.610Z,43.29
2022-08-14T01:25:24.272Z,43.37
2022-08-14T01:30:16.885Z,43.23
2022-08-14T01:35:17.138Z,43.23
2022-08-14T01:40:01.676Z,43.29
2022-08-14T01:44:54.466Z,43.34
2022-08-14T01:49:59.219Z,43.05
2022-08-14T01:54:39.628Z,43.22
2022-08-14T01:59:37.757Z,43.1
2022-08-14T02:04:40.546Z,43.27
2022-08-14T02:09:19.004Z,43.37
2022-08-14T02:14:10.231Z,43.39
2022-08-14T02:19:02.781Z,43.15
2022-08-14T02:23:55.575Z,43.11
2022-08-14T02:28:55.985Z,43.17
2022-08-14T02:33:41.113Z,43.05
2022-08-14T02:38:34.367Z,43.02
2022-08-14T02:43:36.836Z,43.02
2022-08-14T02:49:02.265Z,43.15
2022-08-14T02:53:11.316Z,43.27
2022-08-14T02:58:03.858Z,43.2
2022-08-14T03:02:59.224Z,43.12
2022-08-14T03:07:49.000Z,43.07
2022-08-14T03:12:41.733Z,43.06
2022-08-14T03:17:40.877Z,43.13
2022-08-14T03:22:27.698Z,43.25
2022-08-14T03:27:19.473Z,43.15
2022-08-14T03:32:12.007Z,43.12
2022-08-14T03:41:59.851Z,43.17
2022-08-14T03:51:42.420Z,43.06
2022-08-14T04:01:29.120Z,43.25
2022-08-14T04:11:12.764Z,43.06
2022-08-14T04:16:06.945Z,43.05
2022-08-14T04:20:58.561Z,43.09
2022-08-14T04:25:50.793Z,43.12
2022-08-14T04:30:43.485Z,42.96
2022-08-14T04:35:55.746Z,42.98
2022-08-14T04:40:28.350Z,43.98
2022-08-14T04:45:20.726Z,44.58
2022-08-14T04:50:15.148Z,44.64
2022-08-14T04:55:07.371Z,44.95
2022-08-14T04:59:59.952Z,45.72
2022-08-14T05:04:56.948Z,46.45
2022-08-14T05:09:47.846Z,46.05
2022-08-14T05:14:45.780Z,46.82
2022-08-14T05:19:31.923Z,47.36
2022-08-14T05:24:22.837Z,47.97
2022-08-14T05:29:14.897Z,49.25
2022-08-14T05:34:07.311Z,48.83
2022-08-14T05:38:59.542Z,49.27
2022-08-14T05:43:52.426Z,49.04
2022-08-14T05:48:45.494Z,48.73
2022-08-14T05:53:37.553Z,50.58
2022-08-14T05:58:33.734Z,48.83
2022-08-14T06:03:23.072Z,52.17
2022-08-14T06:08:21.642Z,52.53
2022-08-14T06:13:06.606Z,52.7
2022-08-14T06:17:59.764Z,54.7
2022-08-14T06:22:51.232Z,51.63
2022-08-14T06:27:43.808Z,54.31
2022-08-14T06:32:38.910Z,52.04
2022-08-14T06:37:29.166Z,51.66
2022-08-14T06:42:32.326Z,52.39
2022-08-14T06:47:13.373Z,53.76
2022-08-14T06:52:06.657Z,53.54
2022-08-14T06:57:01.251Z,53.06
2022-08-14T07:01:56.679Z,52.76
2022-08-14T07:06:47.094Z,53.06
2022-08-14T07:11:38.392Z,54.5
2022-08-14T07:16:31.378Z,53.78
2022-08-14T07:21:24.202Z,54.02
2022-08-14T07:26:16.681Z,53.8
2022-08-14T07:31:09.360Z,52.63
2022-08-14T07:36:01.850Z,52.37
2022-08-14T07:40:54.546Z,50.76
2022-08-14T07:45:47.058Z,49.94
2022-08-14T07:50:39.504Z,49.31
2022-08-14T07:55:32.267Z,49.3
2022-08-14T08:00:30.085Z,48.44
2022-08-14T08:05:17.619Z,48.99
2022-08-14T08:10:10.453Z,48.81
2022-08-14T08:15:06.066Z,48.76
2022-08-14T08:19:55.697Z,48.27
2022-08-14T08:24:50.285Z,47.64
2022-08-14T08:29:41.010Z,47.82
2022-08-14T08:34:33.373Z,47.78
2022-08-14T08:39:26.301Z,47.53
2022-08-14T08:44:31.480Z,47.84
2022-08-14T08:49:11.565Z,47.54
2022-08-14T08:54:04.053Z,47.63
2022-08-14T08:58:56.832Z,46.88
2022-08-14T09:03:49.419Z,47.51
2022-08-14T09:08:41.969Z,47.64
2022-08-14T09:13:34.572Z,47.57
2022-08-14T09:18:26.901Z,47.41
2022-08-14T09:23:19.464Z,47.01
2022-08-14T09:28:12.124Z,46.89
2022-08-14T09:33:10.672Z,47.22
2022-08-14T09:37:57.443Z,47.07
2022-08-14T09:42:51.064Z,47.18
2022-08-14T09:47:42.898Z,47.1
2022-08-14T09:52:35.660Z,47.05
2022-08-14T09:57:28.999Z,46.9
2022-08-14T10:02:20.794Z,47.01
2022-08-14T10:07:13.376Z,46.94
2022-08-14T10:12:05.955Z,46.87
2022-08-14T10:16:58.661Z,46.88
2022-08-14T10:21:58.955Z,46.63
2022-08-14T10:26:43.657Z,46.14
2022-08-14T10:31:40.378Z,46.36
2022-08-14T10:36:34.656Z,46.39
2022-08-14T10:41:22.224Z,46.26
2022-08-14T10:46:22.243Z,46.25
2022-08-14T10:51:08.326Z,46.3
2022-08-14T10:55:59.955Z,46.17
2022-08-14T11:00:52.648Z,46.07
2022-08-14T11:05:45.415Z,46.08
2022-08-14T11:15:32.403Z,45.86
2022-08-14T11:25:16.060Z,45.75
2022-08-14T11:35:01.462Z,45.66
2022-08-14T11:39:54.226Z,45.2
2022-08-14T11:44:47.055Z,45.13
2022-08-14T11:49:39.643Z,45.21
2022-08-14T11:54:33.790Z,45.14
2022-08-14T11:59:26.339Z,45.33
2022-08-14T12:04:21.485Z,45.21
2022-08-14T12:09:12.050Z,45.06
2022-08-14T12:14:02.924Z,44.81
2022-08-14T12:18:55.393Z,44.75
2022-08-14T12:23:50.514Z,44.74
2022-08-14T12:28:59.175Z,44.58
2022-08-14T12:33:34.175Z,44.45
2022-08-14T12:38:25.867Z,44.57
2022-08-14T12:43:18.460Z,44.61
2022-08-14T12:48:20.971Z,44.25
2022-08-14T12:53:14.153Z,44.43
2022-08-14T12:57:56.048Z,44.35
2022-08-14T13:02:48.939Z,44.1
2022-08-14T13:07:43.542Z,44.2
2022-08-14T13:12:43.060Z,44.6
2022-08-14T13:17:28.811Z,44.4
2022-08-14T13:22:29.427Z,44.45
2022-08-14T13:27:14.143Z,44.52
2022-08-14T13:32:06.775Z,44.35
2022-08-14T13:37:03.578Z,44.28
2022-08-14T13:41:55.519Z,44.42
2022-08-14T13:46:44.712Z,44.27
2022-08-14T13:51:37.553Z,44.47
2022-08-14T13:56:36.034Z,44.52
2022-08-14T14:01:23.095Z,44.53
2022-08-14T14:06:15.394Z,44.47
2022-08-14T14:11:08.096Z,44.66
2022-08-14T14:16:00.679Z,45
2022-08-14T14:20:53.409Z,44.83
2022-08-14T14:25:46.520Z,44.71
2022-08-14T14:30:46.680Z,44.61
2022-08-14T14:35:32.901Z,44.52
2022-08-14T14:40:51.042Z,44.61
2022-08-14T14:45:16.065Z,44.81
2022-08-14T14:50:08.821Z,44.7
2022-08-14T14:55:01.254Z,44.85
2022-08-14T14:59:53.825Z,45.37
2022-08-14T15:04:46.181Z,45.33
2022-08-14T15:09:38.775Z,45.25
2022-08-14T15:14:54.530Z,45.15
2022-08-14T15:19:23.723Z,45.07
2022-08-14T15:24:20.812Z,45.03
2022-08-14T15:29:08.703Z,45.02
2022-08-14T15:34:33.728Z,45.05
2022-08-14T15:38:54.339Z,45.06
2022-08-14T15:43:47.121Z,45.08
2022-08-14T15:48:40.009Z,44.96
2022-08-14T15:53:32.434Z,44.89
2022-08-14T15:58:25.102Z,44.73
2022-08-14T16:03:17.733Z,44.72
2022-08-14T16:08:24.423Z,44.79
2022-08-14T16:13:03.201Z,44.87
2022-08-14T16:17:55.633Z,44.95
2022-08-14T16:23:10.847Z,44.95
2022-08-14T16:27:41.156Z,44.8
2022-08-14T16:32:35.563Z,44.88
2022-08-14T16:42:38.439Z,43.93
2022-08-14T16:52:07.275Z,41.1
2022-08-14T17:01:49.349Z,39.64
2022-08-14T17:06:42.882Z,39.48
2022-08-14T17:11:37.350Z,39.08
2022-08-14T17:16:27.818Z,39.06
2022-08-14T17:21:23.885Z,38.8
2022-08-14T17:26:12.981Z,38.71
2022-08-14T17:31:05.488Z,38.39
2022-08-14T17:35:59.235Z,38.21
2022-08-14T17:40:50.707Z,38.01
2022-08-14T17:45:43.338Z,38.09
2022-08-14T17:50:58.383Z,38.32
2022-08-14T17:56:00.988Z,38.71
2022-08-14T18:00:20.813Z,39.11
2022-08-14T18:05:13.475Z,39.64
2022-08-14T18:10:51.655Z,39.74
2022-08-14T18:15:00.262Z,39.79
2022-08-14T18:19:51.215Z,40.1
2022-08-14T18:24:44.553Z,40.47
2022-08-14T18:29:36.664Z,40.49
2022-08-14T18:34:31.371Z,41.17
2022-08-14T18:39:22.758Z,41.13
2022-08-14T18:44:14.626Z,40.4
2022-08-14T18:49:07.339Z,40.62
2022-08-14T18:53:59.783Z,40.28
2022-08-14T18:58:56.931Z,40.41
2022-08-14T19:03:44.996Z,40.45
2022-08-14T19:08:37.481Z,40.53
2022-08-14T19:13:44.966Z,40.98
2022-08-14T19:18:26.126Z,41
2022-08-14T19:23:15.147Z,41.09
2022-08-14T19:28:07.787Z,39.6
2022-08-14T19:33:05.501Z,40.19
2022-08-14T19:37:53.950Z,39.44
2022-08-14T19:42:46.463Z,39.49
2022-08-14T19:47:38.956Z,40.43
2022-08-14T19:52:35.504Z,39.74
2022-08-14T19:57:23.444Z,39.74
2022-08-14T20:02:20.826Z,39.67
2022-08-14T20:07:09.031Z,39.66
2022-08-14T20:12:03.149Z,40.07
2022-08-14T20:16:53.129Z,39.88
2022-08-14T20:21:58.584Z,40.36
2022-08-14T20:26:38.443Z,39.97
2022-08-14T20:31:36.759Z,39.93
2022-08-14T20:36:26.163Z,39.8
2022-08-14T20:41:16.289Z,39.69
2022-08-14T20:46:08.923Z,39.89
2022-08-14T20:51:01.365Z,40.14
2022-08-14T20:55:54.116Z,40.25
2022-08-14T21:00:51.973Z,40.2
2022-08-14T21:05:39.652Z,40.1
2022-08-14T21:10:34.399Z,40.13
2022-08-14T21:15:24.692Z,40.11
2022-08-14T21:20:21.542Z,40.15
2022-08-14T21:25:10.965Z,40.34
2022-08-14T21:30:02.635Z,40.15
2022-08-14T21:34:55.633Z,40.23
2022-08-14T21:39:47.805Z,40.11
2022-08-14T21:44:43.381Z,40.37
2022-08-14T21:49:33.972Z,40.29
2022-08-14T21:54:30.502Z,40.17
2022-08-14T21:59:18.439Z,40.32
2022-08-14T22:04:32.222Z,40.37
2022-08-14T22:09:03.748Z,40.29
2022-08-14T22:18:49.319Z,40.37
2022-08-14T22:28:34.612Z,40.31
2022-08-14T22:38:35.148Z,40.21
2022-08-14T22:43:12.426Z,40.42
2022-08-14T22:48:05.176Z,40.46
2022-08-14T22:52:57.541Z,40.4
2022-08-14T22:57:50.328Z,40.41
2022-08-14T23:02:42.592Z,40.51
2022-08-14T23:08:57.426Z,40.58
2022-08-14T23:12:28.156Z,40.61
2022-08-14T23:17:19.982Z,40.57
2022-08-14T23:22:16.814Z,40.59
2022-08-14T23:27:09.085Z,40.79
2022-08-14T23:31:57.634Z,40.59
2022-08-14T23:36:53.761Z,40.82
2022-08-14T23:41:45.689Z,40.84
2022-08-14T23:46:35.409Z,40.71
2022-08-14T23:51:27.958Z,40.81
2022-08-14T23:56:30.532Z,40.81
